createdAt,value
2022-10-05T00:03:41.389Z,4.75
2022-10-05T00:08:43.800Z,7.85
2022-10-05T00:13:47.183Z,4.85
2022-10-05T00:18:51.740Z,1.70
2022-10-05T00:23:57.742Z,4.10
2022-10-05T00:29:02.161Z,5.60
2022-10-05T00:34:04.980Z,2.80
2022-10-05T00:39:07.128Z,2.65
2022-10-05T00:44:32.740Z,2.22
2022-10-05T00:49:43.852Z,1.33
2022-10-05T00:55:28.386Z,1.10
2022-10-05T01:00:37.960Z,2.30
2022-10-05T01:05:54.423Z,2.72
2022-10-05T01:11:20.535Z,2.13
2022-10-05T01:16:45.011Z,4.15
2022-10-05T01:22:07.089Z,2.42
2022-10-05T01:27:37.193Z,2.35
2022-10-05T01:33:20.568Z,2.45
2022-10-05T01:38:31.616Z,1.02
2022-10-05T01:43:49.127Z,0.90
2022-10-05T01:48:59.575Z,2.22
2022-10-05T01:54:50.701Z,1.90
2022-10-05T02:00:13.386Z,2.38
2022-10-05T02:05:23.349Z,1.67
2022-10-05T02:10:32.938Z,4.03
2022-10-05T02:15:58.338Z,1.55
2022-10-05T02:21:03.031Z,2.30
2022-10-05T02:26:08.859Z,4.55
2022-10-05T02:31:15.533Z,2.88
2022-10-05T02:36:23.719Z,2.13
2022-10-05T02:41:53.257Z,1.42
2022-10-05T02:47:02.738Z,1.23
2022-10-05T02:52:06.536Z,2.67
2022-10-05T02:57:31.101Z,2.17
2022-10-05T03:02:42.746Z,1.23
2022-10-05T03:08:08.891Z,2.50
2022-10-05T03:13:22.775Z,1.45
2022-10-05T03:18:59.179Z,1.23
2022-10-05T03:24:28.228Z,1.52
2022-10-05T03:30:07.844Z,1.58
2022-10-05T03:35:33.090Z,3.28
2022-10-05T03:40:44.584Z,1.35
2022-10-05T03:46:04.926Z,1.98
2022-10-05T03:51:10.158Z,2.47
2022-10-05T03:56:23.585Z,2.67
2022-10-05T04:01:53.346Z,1.80
2022-10-05T04:06:57.783Z,2.75
2022-10-05T04:12:15.489Z,1.92
2022-10-05T04:17:46.034Z,2.38
2022-10-05T04:23:29.764Z,6.10
2022-10-05T04:28:34.644Z,1.65
2022-10-05T04:33:37.970Z,1.80
2022-10-05T04:38:48.023Z,3.40
2022-10-05T04:44:33.887Z,0.95
2022-10-05T04:49:54.709Z,2.03
2022-10-05T04:55:30.719Z,1.88
2022-10-05T05:00:55.203Z,1.08
2022-10-05T05:06:34.529Z,1.83
2022-10-05T05:12:04.007Z,3.63
2022-10-05T05:17:29.446Z,3.53
2022-10-05T05:22:52.873Z,3.35
2022-10-05T05:28:06.632Z,2.83
2022-10-05T05:33:15.484Z,3.53
2022-10-05T05:38:27.298Z,3.33
2022-10-05T05:44:07.949Z,2.92
2022-10-05T05:49:22.933Z,2.80
2022-10-05T05:54:38.898Z,3.85
2022-10-05T05:59:44.044Z,3.13
2022-10-05T06:04:54.258Z,1.93
2022-10-05T06:10:16.390Z,2.60
2022-10-05T06:15:31.396Z,5.03
2022-10-05T06:20:59.418Z,2.88
2022-10-05T06:26:09.745Z,3.20
2022-10-05T06:31:32.483Z,2.83
2022-10-05T06:36:50.345Z,4.47
2022-10-05T06:42:23.483Z,3.30
2022-10-05T06:48:04.314Z,2.55
2022-10-05T06:54:07.881Z,2.85
2022-10-05T06:59:22.562Z,1.70
2022-10-05T07:05:03.724Z,2.90
2022-10-05T07:10:24.984Z,3.15
2022-10-05T07:16:03.578Z,2.22
2022-10-05T07:21:39.612Z,3.90
2022-10-05T07:26:50.928Z,4.93
2022-10-05T07:32:28.410Z,3.70
2022-10-05T07:37:49.348Z,2.83
2022-10-05T07:44:00.984Z,5.53
2022-10-05T07:49:34.019Z,5.68
2022-10-05T07:55:03.922Z,6.78
2022-10-05T08:00:18.068Z,5.53
2022-10-05T08:05:26.432Z,3.83
2022-10-05T08:10:41.703Z,6.28
2022-10-05T08:15:50.418Z,8.23
2022-10-05T08:20:58.452Z,6.97
2022-10-05T08:26:24.733Z,6.65
2022-10-05T08:36:40.077Z,5.40
2022-10-05T08:42:21.053Z,6.28
2022-10-05T08:47:41.379Z,5.10
2022-10-05T08:52:43.484Z,8.32
2022-10-05T08:58:30.788Z,5.50
2022-10-05T09:04:11.589Z,8.77
2022-10-05T09:09:19.642Z,3.22
2022-10-05T09:14:56.641Z,6.60
2022-10-05T09:20:14.639Z,5.78
2022-10-05T09:25:40.456Z,8.00
2022-10-05T09:30:42.664Z,4.90
2022-10-05T09:36:14.005Z,3.45
2022-10-05T09:41:37.406Z,4.10
2022-10-05T09:46:39.628Z,3.42
2022-10-05T09:52:06.361Z,2.08
2022-10-05T09:57:17.272Z,3.00
2022-10-05T10:02:44.007Z,2.85
2022-10-05T10:08:07.894Z,2.17
2022-10-05T10:13:28.924Z,4.03
2022-10-05T10:18:57.397Z,2.65
2022-10-05T10:24:08.429Z,2.03
2022-10-05T10:29:51.931Z,2.72
2022-10-05T10:35:22.310Z,1.83
2022-10-05T10:40:53.688Z,4.55
2022-10-05T10:46:06.150Z,5.00
2022-10-05T10:51:36.243Z,4.93
2022-10-05T10:57:03.300Z,8.02
2022-10-05T11:02:30.181Z,9.50
2022-10-05T11:07:38.304Z,8.40
2022-10-05T11:13:01.903Z,9.45
2022-10-05T11:18:20.203Z,7.43
2022-10-05T11:23:38.769Z,8.38
2022-10-05T11:28:58.825Z,8.77
2022-10-05T11:34:28.461Z,1.50
2022-10-05T11:40:11.296Z,0.70
2022-10-05T11:45:33.381Z,3.58
2022-10-05T11:51:19.151Z,0.93
2022-10-05T11:56:36.704Z,2.95
2022-10-05T12:01:59.089Z,2.63
2022-10-05T12:07:30.177Z,7.38
2022-10-05T12:12:44.300Z,6.68
2022-10-05T12:18:08.412Z,6.72
2022-10-05T12:23:43.283Z,5.28
2022-10-05T12:28:53.467Z,2.78
2022-10-05T12:34:37.392Z,2.28
2022-10-05T12:39:56.731Z,3.50
2022-10-05T12:45:13.906Z,4.18
2022-10-05T12:50:31.955Z,4.60
2022-10-05T12:56:03.015Z,4.55
2022-10-05T13:01:30.761Z,4.68
2022-10-05T13:06:41.519Z,2.88
2022-10-05T13:11:50.293Z,2.15
2022-10-05T13:17:15.706Z,2.83
2022-10-05T13:22:48.325Z,4.03
2022-10-05T13:28:02.354Z,5.40
2022-10-05T13:33:25.330Z,3.67
2022-10-05T13:39:14.529Z,4.30
2022-10-05T13:44:22.670Z,4.38
2022-10-05T13:49:29.730Z,6.13
2022-10-05T13:54:37.407Z,1.95
2022-10-05T13:59:57.657Z,2.58
2022-10-05T14:05:02.278Z,6.65
2022-10-05T14:10:11.695Z,3.72
2022-10-05T14:15:29.040Z,6.93
2022-10-05T14:20:34.824Z,6.95
2022-10-05T14:31:16.413Z,4.22
2022-10-05T14:36:35.243Z,6.07
2022-10-05T14:41:46.295Z,6.70
2022-10-05T14:47:04.593Z,6.63
2022-10-05T14:53:00.947Z,5.88
2022-10-05T14:58:09.108Z,5.70
2022-10-05T15:03:40.561Z,6.10
2022-10-05T15:08:59.561Z,8.80
2022-10-05T15:14:06.302Z,9.55
2022-10-05T15:19:31.276Z,11.80
2022-10-05T15:24:48.307Z,8.13
2022-10-05T15:29:59.212Z,7.63
2022-10-05T15:35:38.290Z,9.35
2022-10-05T15:41:06.262Z,7.95
2022-10-05T15:46:24.394Z,12.95
2022-10-05T15:51:50.222Z,9.52
2022-10-05T15:56:59.318Z,5.07
2022-10-05T16:02:07.404Z,11.27
2022-10-05T16:07:49.951Z,13.77
2022-10-05T16:13:11.730Z,9.52
2022-10-05T16:18:32.749Z,11.57
2022-10-05T16:24:10.993Z,10.63
2022-10-05T16:29:18.869Z,10.77
2022-10-05T16:34:44.466Z,10.25
2022-10-05T16:39:50.342Z,12.07
2022-10-05T16:50:38.380Z,12.77
2022-10-05T16:56:04.557Z,12.43
2022-10-05T17:01:33.294Z,11.93
2022-10-05T17:06:58.036Z,12.38
2022-10-05T17:12:42.884Z,11.13
2022-10-05T17:18:16.648Z,8.98
2022-10-05T17:23:58.052Z,8.82
2022-10-05T17:29:09.458Z,13.82
2022-10-05T17:34:17.945Z,10.40
2022-10-05T17:39:22.937Z,9.48
2022-10-05T17:44:26.331Z,10.03
2022-10-05T17:50:13.259Z,14.02
2022-10-05T18:00:43.631Z,13.05
2022-10-05T18:05:46.417Z,8.57
2022-10-05T18:11:06.683Z,10.95
2022-10-05T18:16:12.180Z,7.32
2022-10-05T18:21:14.455Z,12.25
2022-10-05T18:26:44.840Z,17.10
2022-10-05T18:31:53.236Z,10.15
2022-10-05T18:37:22.621Z,10.93
2022-10-05T18:42:37.452Z,9.38
2022-10-05T18:48:17.960Z,9.85
2022-10-05T18:53:37.420Z,13.48
2022-10-05T18:59:18.532Z,13.60
2022-10-05T19:04:41.676Z,11.38
2022-10-05T19:10:12.013Z,12.88
2022-10-05T19:15:28.151Z,11.55
2022-10-05T19:26:20.323Z,10.95
2022-10-05T19:31:38.762Z,15.88
2022-10-05T19:36:59.419Z,11.20
2022-10-05T19:42:04.561Z,8.60
2022-10-05T19:47:31.644Z,7.37
2022-10-05T19:52:49.109Z,5.70
2022-10-05T19:58:02.067Z,11.80
2022-10-05T20:03:18.341Z,8.02
2022-10-05T20:08:22.929Z,12.23
2022-10-05T20:13:24.999Z,13.40
2022-10-05T20:18:56.898Z,10.15
2022-10-05T20:24:15.881Z,11.35
2022-10-05T20:29:18.147Z,17.65
2022-10-05T20:34:21.709Z,9.63
2022-10-05T20:39:23.749Z,8.63
2022-10-05T20:44:27.076Z,16.98
2022-10-05T20:49:31.177Z,13.73
2022-10-05T20:54:33.377Z,13.63
2022-10-05T20:59:36.532Z,12.35
2022-10-05T21:04:41.521Z,8.30
2022-10-05T21:09:46.595Z,8.07
2022-10-05T21:14:48.969Z,14.53
2022-10-05T21:19:52.741Z,5.63
2022-10-05T21:24:55.262Z,6.75
2022-10-05T21:29:57.379Z,6.03
2022-10-05T21:34:59.583Z,6.90
2022-10-05T21:40:01.669Z,7.95
2022-10-05T21:45:05.033Z,11.85
2022-10-05T21:50:08.742Z,10.57
2022-10-05T21:55:11.242Z,16.25
2022-10-05T22:00:16.881Z,7.45
2022-10-05T22:05:19.197Z,12.57
2022-10-05T22:10:21.337Z,11.20
2022-10-05T22:15:23.649Z,11.65
2022-10-05T22:20:26.772Z,11.88
2022-10-05T22:25:28.818Z,13.45
2022-10-05T22:30:30.951Z,6.28
2022-10-05T22:35:35.888Z,11.52
2022-10-05T22:40:38.060Z,13.05
2022-10-05T22:45:40.674Z,10.95
2022-10-05T22:50:46.457Z,7.53
2022-10-05T22:55:48.599Z,8.15
2022-10-05T23:00:58.906Z,5.40
2022-10-05T23:06:04.573Z,9.52
2022-10-05T23:11:15.632Z,8.35
2022-10-05T23:16:20.630Z,6.25
2022-10-05T23:21:25.121Z,7.18
2022-10-05T23:26:27.487Z,6.95
2022-10-05T23:31:31.184Z,5.35
2022-10-05T23:36:33.371Z,7.13
2022-10-05T23:41:35.423Z,9.95
2022-10-05T23:46:37.519Z,11.30
2022-10-05T23:51:39.735Z,15.90
2022-10-05T23:56:41.846Z,8.70
